createdAt,value
2023-03-05T00:02:27.098Z,1.30
2023-03-05T00:07:28.575Z,1.30
2023-03-05T00:12:30.014Z,1.30
2023-03-05T00:17:31.458Z,1.30
2023-03-05T00:22:32.909Z,1.30
2023-03-05T00:27:34.329Z,1.30
2023-03-05T00:32:36.002Z,1.30
2023-03-05T00:37:37.447Z,1.30
2023-03-05T00:42:38.920Z,1.30
2023-03-05T00:47:40.383Z,1.20
2023-03-05T00:52:41.846Z,1.20
2023-03-05T00:57:43.339Z,1.20
2023-03-05T01:02:44.806Z,1.30
2023-03-05T01:07:46.260Z,1.30
2023-03-05T01:12:48.280Z,1.30
2023-03-05T01:17:49.699Z,1.30
2023-03-05T01:22:51.128Z,1.30
2023-03-05T01:27:52.580Z,1.30
2023-03-05T01:32:54.033Z,1.20
2023-03-05T01:37:55.475Z,1.20
2023-03-05T01:42:56.900Z,1.20
2023-03-05T01:47:58.316Z,1.20
2023-03-05T01:52:59.995Z,1.30
2023-03-05T01:58:01.412Z,1.30
2023-03-05T02:03:02.879Z,1.30
2023-03-05T02:08:04.357Z,1.40
2023-03-05T02:13:05.813Z,1.30
2023-03-05T02:18:07.232Z,1.30
2023-03-05T02:23:08.648Z,1.20
2023-03-05T02:28:10.072Z,1.20
2023-03-05T02:33:11.538Z,1.10
2023-03-05T02:38:12.962Z,1.00
2023-03-05T02:43:14.399Z,1.00
2023-03-05T02:48:15.822Z,0.90
2023-03-05T02:53:17.318Z,0.80
2023-03-05T02:58:18.784Z,0.80
2023-03-05T03:03:20.285Z,0.70
2023-03-05T03:08:21.785Z,0.60
2023-03-05T03:13:23.218Z,0.50
2023-03-05T03:18:24.649Z,0.50
2023-03-05T03:23:26.081Z,0.50
2023-03-05T03:28:27.510Z,0.40
2023-03-05T03:33:28.984Z,0.40
2023-03-05T03:38:30.454Z,0.40
2023-03-05T03:43:31.888Z,0.30
2023-03-05T03:48:33.315Z,0.40
2023-03-05T03:53:34.772Z,0.40
2023-03-05T03:58:36.200Z,0.40
2023-03-05T04:03:37.674Z,0.40
2023-03-05T04:08:39.092Z,0.40
2023-03-05T04:13:40.550Z,0.40
2023-03-05T04:18:42.014Z,0.40
2023-03-05T04:23:43.465Z,0.40
2023-03-05T04:28:44.879Z,0.40
2023-03-05T04:33:46.327Z,0.40
2023-03-05T04:38:47.761Z,0.40
2023-03-05T04:43:49.176Z,0.50
2023-03-05T04:48:50.630Z,0.50
2023-03-05T04:53:52.092Z,0.40
2023-03-05T04:58:53.514Z,0.50
2023-03-05T05:03:54.966Z,0.50
2023-03-05T05:08:56.426Z,0.50
2023-03-05T05:13:57.853Z,0.60
2023-03-05T05:18:59.344Z,0.60
2023-03-05T05:24:00.874Z,0.60
2023-03-05T05:29:02.344Z,0.60
2023-03-05T05:34:03.771Z,0.60
2023-03-05T05:39:05.236Z,0.70
2023-03-05T05:44:06.706Z,0.60
2023-03-05T05:49:08.164Z,0.60
2023-03-05T05:54:09.627Z,0.60
2023-03-05T05:59:11.089Z,0.60
2023-03-05T06:04:12.557Z,0.60
2023-03-05T06:09:13.985Z,0.60
2023-03-05T06:14:15.429Z,0.70
2023-03-05T06:19:16.864Z,0.70
2023-03-05T06:24:18.325Z,0.70
2023-03-05T06:29:19.786Z,0.80
2023-03-05T06:34:21.256Z,0.80
2023-03-05T06:39:22.695Z,0.70
2023-03-05T06:44:24.168Z,0.70
2023-03-05T06:49:25.600Z,0.70
2023-03-05T06:54:27.034Z,0.70
2023-03-05T06:59:28.514Z,0.80
2023-03-05T07:04:30.020Z,0.90
2023-03-05T07:09:31.483Z,1.00
2023-03-05T07:14:32.894Z,1.10
2023-03-05T07:19:34.366Z,1.10
2023-03-05T07:24:35.813Z,1.20
2023-03-05T07:29:37.291Z,1.20
2023-03-05T07:34:38.758Z,1.20
2023-03-05T07:39:40.222Z,1.30
2023-03-05T07:44:41.697Z,1.30
2023-03-05T07:49:43.134Z,1.40
2023-03-05T07:54:44.604Z,1.40
2023-03-05T07:59:46.041Z,1.50
2023-03-05T08:04:47.470Z,1.50
2023-03-05T08:09:48.929Z,1.60
2023-03-05T08:14:50.358Z,1.70
2023-03-05T08:19:51.772Z,1.60
2023-03-05T08:24:53.229Z,1.50
2023-03-05T08:29:54.654Z,1.30
2023-03-05T08:34:56.078Z,1.20
2023-03-05T08:39:57.548Z,1.30
2023-03-05T08:44:59.059Z,1.30
2023-03-05T08:50:00.573Z,1.40
2023-03-05T08:55:02.000Z,1.50
2023-03-05T09:00:03.429Z,1.70
2023-03-05T09:05:04.897Z,1.80
2023-03-05T09:10:06.327Z,1.80
2023-03-05T09:15:07.772Z,1.80
2023-03-05T09:20:09.209Z,1.70
2023-03-05T09:25:10.690Z,1.70
2023-03-05T09:30:12.128Z,1.70
2023-03-05T09:35:13.585Z,1.90
2023-03-05T09:40:15.030Z,2.10
2023-03-05T09:45:16.487Z,2.20
2023-03-05T09:50:17.993Z,2.20
2023-03-05T09:55:19.469Z,2.40
2023-03-05T10:00:20.987Z,2.40
2023-03-05T10:05:22.511Z,2.60
2023-03-05T10:10:23.972Z,2.90
2023-03-05T10:15:25.402Z,3.20
2023-03-05T10:20:26.879Z,3.50
2023-03-05T10:25:28.342Z,3.70
2023-03-05T10:30:29.782Z,4.00
2023-03-05T10:35:31.234Z,4.20
2023-03-05T10:40:32.706Z,4.20
2023-03-05T10:45:34.174Z,4.00
2023-03-05T10:50:35.620Z,4.00
2023-03-05T10:55:37.086Z,3.80
2023-03-05T11:00:38.511Z,3.50
2023-03-05T11:05:39.963Z,3.40
2023-03-05T11:10:41.440Z,3.20
2023-03-05T11:15:42.919Z,3.20
2023-03-05T11:20:44.368Z,3.10
2023-03-05T11:25:45.814Z,3.10
2023-03-05T11:30:47.330Z,3.20
2023-03-05T11:35:48.850Z,3.20
2023-03-05T11:40:50.306Z,3.20
2023-03-05T11:45:51.748Z,3.40
2023-03-05T11:50:53.226Z,3.70
2023-03-05T11:55:54.696Z,3.80
2023-03-05T12:00:56.169Z,3.90
2023-03-05T12:05:57.640Z,3.80
2023-03-05T12:10:59.109Z,3.60
2023-03-05T12:16:00.533Z,3.10
2023-03-05T12:21:02.008Z,2.90
2023-03-05T12:26:03.510Z,3.10
2023-03-05T12:31:04.938Z,3.30
2023-03-05T12:36:06.395Z,3.50
2023-03-05T12:41:07.881Z,3.60
2023-03-05T12:46:09.361Z,3.30
2023-03-05T12:51:10.823Z,3.00
2023-03-05T12:56:12.871Z,2.90
2023-03-05T13:01:14.421Z,2.80
2023-03-05T13:06:15.932Z,2.80
2023-03-05T13:11:17.398Z,2.70
2023-03-05T13:16:18.880Z,2.60
2023-03-05T13:21:20.343Z,2.50
2023-03-05T13:26:21.792Z,2.30
2023-03-05T13:31:23.232Z,2.10
2023-03-05T13:36:24.665Z,2.00
2023-03-05T13:41:26.123Z,1.90
2023-03-05T13:46:27.659Z,1.70
2023-03-05T13:51:29.165Z,1.60
2023-03-05T13:56:30.605Z,1.60
2023-03-05T14:01:32.085Z,1.60
2023-03-05T14:06:33.584Z,1.70
2023-03-05T14:11:35.039Z,1.70
2023-03-05T14:16:36.536Z,1.90
2023-03-05T14:21:38.042Z,2.00
2023-03-05T14:26:39.483Z,2.20
2023-03-05T14:31:40.954Z,2.40
2023-03-05T14:36:42.407Z,2.50
2023-03-05T14:41:43.828Z,2.60
2023-03-05T14:46:45.283Z,2.60
2023-03-05T14:51:46.714Z,2.70
2023-03-05T14:56:48.197Z,2.70
2023-03-05T15:01:49.662Z,2.70
2023-03-05T15:06:51.145Z,2.70
2023-03-05T15:11:52.581Z,2.60
2023-03-05T15:16:54.024Z,2.40
2023-03-05T15:21:55.490Z,2.20
2023-03-05T15:26:56.942Z,2.00
2023-03-05T15:31:58.431Z,1.90
2023-03-05T15:36:59.912Z,1.90
2023-03-05T15:42:01.380Z,2.00
2023-03-05T15:47:02.821Z,2.00
2023-03-05T15:52:04.287Z,2.00
2023-03-05T15:57:05.738Z,2.00
2023-03-05T16:02:07.208Z,2.00
2023-03-05T16:07:08.692Z,2.00
2023-03-05T16:12:10.281Z,2.00
2023-03-05T16:17:11.765Z,1.90
2023-03-05T16:22:13.198Z,1.90
2023-03-05T16:27:14.636Z,1.90
2023-03-05T16:32:16.169Z,1.80
2023-03-05T16:37:17.620Z,1.60
2023-03-05T16:42:19.074Z,1.60
2023-03-05T16:47:20.511Z,1.50
2023-03-05T16:52:21.935Z,1.50
2023-03-05T16:57:23.362Z,1.50
2023-03-05T17:02:24.776Z,1.40
2023-03-05T17:07:26.242Z,1.20
2023-03-05T17:12:27.722Z,1.20
2023-03-05T17:17:29.222Z,1.10
2023-03-05T17:22:30.709Z,1.10
2023-03-05T17:27:32.142Z,1.10
2023-03-05T17:32:33.695Z,1.00
2023-03-05T17:37:35.135Z,0.90
2023-03-05T17:42:36.629Z,0.90
2023-03-05T17:47:38.068Z,0.90
2023-03-05T17:52:39.499Z,0.90
2023-03-05T17:57:40.982Z,0.80
2023-03-05T18:02:42.482Z,0.80
2023-03-05T18:07:43.944Z,0.80
2023-03-05T18:12:45.426Z,0.80
2023-03-05T18:17:46.864Z,0.70
2023-03-05T18:22:49.389Z,0.70
2023-03-05T18:27:50.820Z,0.70
2023-03-05T18:32:52.278Z,0.70
2023-03-05T18:37:53.761Z,0.70
2023-03-05T18:42:55.241Z,0.70
2023-03-05T18:47:56.714Z,0.60
2023-03-05T18:52:58.162Z,0.60
2023-03-05T18:57:59.602Z,0.60
2023-03-05T19:03:01.060Z,0.60
2023-03-05T19:08:03.558Z,0.60
2023-03-05T19:13:05.003Z,0.60
2023-03-05T19:18:06.468Z,0.60
2023-03-05T19:23:07.946Z,0.60
2023-03-05T19:28:09.414Z,0.60
2023-03-05T19:33:10.911Z,0.50
2023-03-05T19:38:12.379Z,0.50
2023-03-05T19:43:13.845Z,0.50
2023-03-05T19:48:15.302Z,0.50
2023-03-05T19:53:16.769Z,0.50
2023-03-05T19:58:18.237Z,0.40
2023-03-05T20:03:19.661Z,0.40
2023-03-05T20:08:21.120Z,0.40
2023-03-05T20:13:22.547Z,0.40
2023-03-05T20:18:24.010Z,0.40
2023-03-05T20:23:25.484Z,0.40
2023-03-05T20:28:26.927Z,0.50
2023-03-05T20:33:28.391Z,0.40
2023-03-05T20:38:29.832Z,0.40
2023-03-05T20:43:31.259Z,0.40
2023-03-05T20:48:32.765Z,0.40
2023-03-05T20:53:34.232Z,0.40
2023-03-05T20:58:35.698Z,0.40
2023-03-05T21:03:37.168Z,0.40
2023-03-05T21:08:38.645Z,0.40
2023-03-05T21:13:40.084Z,0.40
2023-03-05T21:18:41.505Z,0.40
2023-03-05T21:23:42.962Z,0.40
2023-03-05T21:28:44.402Z,0.40
2023-03-05T21:33:45.858Z,0.40
2023-03-05T21:38:47.362Z,0.40
2023-03-05T21:43:48.810Z,0.40
2023-03-05T21:48:50.247Z,0.30
2023-03-05T21:53:51.662Z,0.40
2023-03-05T21:58:53.120Z,0.40
2023-03-05T22:03:54.623Z,0.40
2023-03-05T22:08:56.070Z,0.40
2023-03-05T22:13:57.488Z,0.40
2023-03-05T22:18:58.905Z,0.40
2023-03-05T22:24:00.361Z,0.40
2023-03-05T22:29:01.821Z,0.40
2023-03-05T22:34:03.295Z,0.40
2023-03-05T22:39:04.768Z,0.40
2023-03-05T22:44:06.234Z,0.30
2023-03-05T22:49:07.660Z,0.30
2023-03-05T22:54:09.136Z,0.30
2023-03-05T22:59:10.567Z,0.30
2023-03-05T23:04:12.028Z,0.30
2023-03-05T23:09:13.637Z,0.30
2023-03-05T23:14:15.103Z,0.40
2023-03-05T23:19:16.558Z,0.30
2023-03-05T23:24:18.029Z,0.30
2023-03-05T23:29:19.485Z,0.20
2023-03-05T23:34:20.959Z,0.10
2023-03-05T23:39:22.379Z,0.00
2023-03-05T23:44:23.833Z,-0.10
2023-03-05T23:49:25.332Z,-0.20
2023-03-05T23:54:26.799Z,-0.20
2023-03-05T23:59:28.274Z,-0.30
